Time;durP1;ratioP1;P1;durP2;ratioP2;P2;SDS_P1;SDS_P2;PMS_P1;PMS_P2;Temp;Humidity;BMP_temperature;BMP_pressure;BME280_temperature;BME280_humidity;BME280_pressure;Samples;Min_cycle;Max_cycle;Signal;HPM_P1;HPM_P2
2023/12/04 00:00:21;;;;;;;;;;;;;;;;;;5096057;28;19908;-68
2023/12/04 00:02:47;;;;;;;;;;;;;;;;;;5096512;28;19918;-68
2023/12/04 00:05:13;;;;;;;;;;;;;;;;;;5095603;28;19918;-69
2023/12/04 00:07:39;;;;;;;;;;;;;;;;;;5096023;28;19918;-69
2023/12/04 00:10:05;;;;;;;;;;;;;;;;;;5096001;28;19922;-69
2023/12/04 00:12:32;;;;;;;;;;;;;;;;;;5095982;28;20353;-69
2023/12/04 00:14:58;;;;;;;;;;;;;;;;;;5096230;28;19934;-69
2023/12/04 00:17:24;;;;;;;;;;;;;;;;;;5096011;28;19916;-69
2023/12/04 00:19:50;;;;;;;;;;;;;;;;;;5094561;28;19908;-68
2023/12/04 00:22:16;;;;;;;;;;;;;;;;;;5095800;28;19908;-69
2023/12/04 00:24:42;;;;;;;;;;;;;;;;;;5095774;28;20374;-68
2023/12/04 00:27:09;;;;;;;;;;;;;;;;;;5095702;28;19912;-69
2023/12/04 00:29:35;;;;;;;;;;;;;;;;;;5095914;28;19915;-69
2023/12/04 00:32:01;;;;;;;;;;;;;;;;;;5095600;28;20381;-68
2023/12/04 00:34:27;;;;;;;;;;;;;;;;;;5095122;28;20386;-69
2023/12/04 00:36:54;;;;;;;;;;;;;;;;;;5095804;28;19908;-69
2023/12/04 00:39:20;;;;;;;;;;;;;;;;;;5095679;28;19908;-68
2023/12/04 00:41:46;;;;;;;;;;;;;;;;;;5095437;28;19908;-69
2023/12/04 00:44:12;;;;;;;;;;;;;;;;;;5095502;28;19912;-69
2023/12/04 00:46:38;;;;;;;;;;;;;;;;;;5095206;28;20303;-68
2023/12/04 00:49:04;;;;;;;;;;;;;;;;;;5095230;28;19908;-68
2023/12/04 00:51:31;;;;;;;;;;;;;;;;;;5094199;28;19915;-68
2023/12/04 00:53:57;;;;;;;;;;;;;;;;;;5095132;28;19919;-69
2023/12/04 00:56:23;;;;;;;;;;;;;;;;;;5095184;28;19915;-68
2023/12/04 00:58:49;;;;;;;;;;;;;;;;;;5095071;28;19908;-69
2023/12/04 01:01:15;;;;;;;;;;;;;;;;;;5095026;28;19912;-69
2023/12/04 01:03:41;;;;;;;;;;;;;;;;;;5094654;28;19908;-69
2023/12/04 01:06:08;;;;;;;;;;;;;;;;;;5095025;28;19944;-69
2023/12/04 01:08:34;;;;;;;;;;;;;;;;;;5095011;28;20395;-69
2023/12/04 01:11:00;;;;;;;;;;;;;;;;;;5095017;28;19977;-68
2023/12/04 01:13:26;;;;;;;;;;;;;;;;;;5094871;28;19916;-69
2023/12/04 01:15:52;;;;;;;;;;;;;;;;;;5094912;28;19908;-68
2023/12/04 01:18:19;;;;;;;;;;;;;;;;;;5094407;28;19912;-69
2023/12/04 01:20:45;;;;;;;;;;;;;;;;;;5094620;28;19914;-69
2023/12/04 01:23:11;;;;;;;;;;;;;;;;;;5094358;28;20379;-69
2023/12/04 01:25:37;;;;;;;;;;;;;;;;;;5094555;28;20280;-68
2023/12/04 01:28:03;;;;;;;;;;;;;;;;;;5094077;28;19908;-69
2023/12/04 01:30:29;;;;;;;;;;;;;;;;;;5094429;28;19908;-69
2023/12/04 01:32:56;;;;;;;;;;;;;;;;;;5093909;28;20357;-68
2023/12/04 01:35:22;;;;;;;;;;;;;;;;;;5094339;28;19912;-69
2023/12/04 01:37:48;;;;;;;;;;;;;;;;;;5094377;28;20360;-68
2023/12/04 01:40:14;;;;;;;;;;;;;;;;;;5094596;28;19908;-69
2023/12/04 01:42:40;;;;;;;;;;;;;;;;;;5094290;28;19908;-69
2023/12/04 01:45:07;;;;;;;;;;;;;;;;;;5094193;28;19920;-69
2023/12/04 01:47:33;;;;;;;;;;;;;;;;;;5092839;28;19914;-68
2023/12/04 01:49:59;;;;;;;;;;;;;;;;;;5094046;28;19908;-69
2023/12/04 01:52:25;;;;;;;;;;;;;;;;;;5094271;28;19920;-69
2023/12/04 01:54:51;;;;;;;;;;;;;;;;;;5093937;28;19977;-68
2023/12/04 01:57:18;;;;;;;;;;;;;;;;;;5093987;28;20382;-69
2023/12/04 01:59:44;;;;;;;;;;;;;;;;;;5094123;28;19908;-68
2023/12/04 02:02:10;;;;;;;;;;;;;;;;;;5093863;28;20165;-69
2023/12/04 02:04:36;;;;;;;;;;;;;;;;;;5093815;28;19908;-68
2023/12/04 02:07:02;;;;;;;;;;;;;;;;;;5093854;28;19931;-69
2023/12/04 02:09:29;;;;;;;;;;;;;;;;;;5092709;28;20297;-69
2023/12/04 02:11:55;;;;;;;;;;;;;;;;;;5093764;28;19912;-68
2023/12/04 02:14:21;;;;;;;;;;;;;;;;;;5093647;28;19940;-69
2023/12/04 02:16:47;;;;;;;;;;;;;;;;;;5093795;28;19908;-69
2023/12/04 02:19:13;;;;;;;;;;;;;;;;;;5093885;28;19914;-69
2023/12/04 02:21:40;;;;;;;;;;;;;;;;;;5092446;28;19909;-69
2023/12/04 02:24:06;;;;;;;;;;;;;;;;;;5093352;28;19912;-69
2023/12/04 02:26:32;;;;;;;;;;;;;;;;;;5093420;28;19912;-69
2023/12/04 02:28:59;;;;;;;;;;;;;;;;;;5093804;28;19908;-68
2023/12/04 02:31:25;;;;;;;;;;;;;;;;;;5093417;28;20364;-68
2023/12/04 02:33:51;;;;;;;;;;;;;;;;;;5093085;28;19916;-68
2023/12/04 02:36:17;;;;;;;;;;;;;;;;;;5093306;28;19916;-69
2023/12/04 02:38:43;;;;;;;;;;;;;;;;;;5091681;28;19919;-69
2023/12/04 02:41:10;;;;;;;;;;;;;;;;;;5092981;28;19931;-69
2023/12/04 02:43:36;;;;;;;;;;;;;;;;;;5093194;28;20379;-68
2023/12/04 02:46:02;;;;;;;;;;;;;;;;;;5093226;28;20068;-68
2023/12/04 02:48:28;;;;;;;;;;;;;;;;;;5093503;28;19961;-69
2023/12/04 02:50:54;;;;;;;;;;;;;;;;;;5093279;28;19908;-69
2023/12/04 02:53:20;;;;;;;;;;;;;;;;;;5093154;28;20318;-69
2023/12/04 02:55:47;;;;;;;;;;;;;;;;;;5093431;28;19908;-69
2023/12/04 02:58:13;;;;;;;;;;;;;;;;;;5093384;28;19912;-69
2023/12/04 03:00:39;;;;;;;;;;;;;;;;;;5092978;28;19934;-69
2023/12/04 03:03:05;;;;;;;;;;;;;;;;;;5093217;28;19908;-69
2023/12/04 03:05:31;;;;;;;;;;;;;;;;;;5092977;28;19920;-69
2023/12/04 03:07:58;;;;;;;;;;;;;;;;;;5093319;28;19912;-68
2023/12/04 03:10:24;;;;;;;;;;;;;;;;;;5093330;28;19909;-68
2023/12/04 03:12:50;;;;;;;;;;;;;;;;;;5092593;28;19916;-69
2023/12/04 03:15:16;;;;;;;;;;;;;;;;;;5092856;28;19969;-69
2023/12/04 03:17:42;;;;;;;;;;;;;;;;;;5091759;28;20322;-69
2023/12/04 03:20:08;;;;;;;;;;;;;;;;;;5093263;28;19914;-69
2023/12/04 03:22:35;;;;;;;;;;;;;;;;;;5093094;28;19908;-69
2023/12/04 03:25:01;;;;;;;;;;;;;;;;;;5072664;28;20262;-69
2023/12/04 03:27:27;;;;;;;;;;;;;;;;;;5072652;28;19908;-69
2023/12/04 03:29:54;;;;;;;;;;;;;;;;;;5072888;28;19931;-69
2023/12/04 03:32:20;;;;;;;;;;;;;;;;;;5075785;28;19916;-69
2023/12/04 03:34:46;;;;;;;;;;;;;;;;;;5092716;28;20307;-69
2023/12/04 03:37:12;;;;;;;;;;;;;;;;;;5092965;28;19930;-69
2023/12/04 03:39:38;;;;;;;;;;;;;;;;;;5092774;28;19908;-69
2023/12/04 03:42:05;;;;;;;;;;;;;;;;;;5092860;28;19912;-69
2023/12/04 03:44:31;;;;;;;;;;;;;;;;;;5093072;28;19908;-69
2023/12/04 03:46:57;;;;;;;;;;;;;;;;;;5092615;28;19964;-69
2023/12/04 03:49:23;;;;;;;;;;;;;;;;;;5091699;28;20288;-69
2023/12/04 03:51:49;;;;;;;;;;;;;;;;;;5095066;28;19912;-69
2023/12/04 03:54:16;;;;;;;;;;;;;;;;;;5096644;28;19916;-69
2023/12/04 03:56:42;;;;;;;;;;;;;;;;;;5094856;28;19915;-69
2023/12/04 03:59:08;;;;;;;;;;;;;;;;;;5096227;28;19908;-69
2023/12/04 04:01:34;;;;;;;;;;;;;;;;;;5096286;28;19961;-69
2023/12/04 04:04:00;;;;;;;;;;;;;;;;;;5096086;28;20303;-69
2023/12/04 04:06:27;;;;;;;;;;;;;;;;;;5096038;28;19924;-69
2023/12/04 04:08:53;;;;;;;;;;;;;;;;;;5096371;28;19912;-70
2023/12/04 04:11:19;;;;;;;;;;;;;;;;;;5095673;28;19912;-69
2023/12/04 04:13:45;;;;;;;;;;;;;;;;;;5095808;28;20357;-69
2023/12/04 04:16:11;;;;;;;;;;;;;;;;;;5095944;28;19930;-69
2023/12/04 04:18:37;;;;;;;;;;;;;;;;;;5096170;28;19912;-69
2023/12/04 04:21:04;;;;;;;;;;;;;;;;;;5096112;28;19914;-69
2023/12/04 04:23:30;;;;;;;;;;;;;;;;;;5095692;28;19918;-69
2023/12/04 04:25:56;;;;;;;;;;;;;;;;;;5095399;28;19946;-69
2023/12/04 04:28:23;;;;;;;;;;;;;;;;;;5094817;28;19908;-69
2023/12/04 04:30:49;;;;;;;;;;;;;;;;;;5095935;28;19912;-69
2023/12/04 04:33:17;;;;;;;;;;;;;;;;;;5095359;28;19923;-69
2023/12/04 04:35:43;;;;;;;;;;;;;;;;;;5095399;28;19957;-69
2023/12/04 04:38:09;;;;;;;;;;;;;;;;;;5095589;28;19914;-69
2023/12/04 04:40:35;;;;;;;;;;;;;;;;;;5095154;28;20287;-69
2023/12/04 04:43:01;;;;;;;;;;;;;;;;;;5095417;28;19912;-69
2023/12/04 04:45:28;;;;;;;;;;;;;;;;;;5095319;28;19934;-69
2023/12/04 04:47:54;;;;;;;;;;;;;;;;;;5095161;28;19914;-69
2023/12/04 04:50:20;;;;;;;;;;;;;;;;;;5095324;28;20275;-69
2023/12/04 04:52:46;;;;;;;;;;;;;;;;;;5095381;28;19920;-69
2023/12/04 04:55:12;;;;;;;;;;;;;;;;;;5095066;28;19908;-69
2023/12/04 04:57:39;;;;;;;;;;;;;;;;;;5095096;28;19908;-69
2023/12/04 05:00:05;;;;;;;;;;;;;;;;;;5095095;28;19916;-69
2023/12/04 05:02:31;;;;;;;;;;;;;;;;;;5094285;28;19908;-68
2023/12/04 05:04:57;;;;;;;;;;;;;;;;;;5094803;28;19915;-69
2023/12/04 05:07:23;;;;;;;;;;;;;;;;;;5094988;28;19941;-69
2023/12/04 05:09:50;;;;;;;;;;;;;;;;;;5094488;28;20295;-69
2023/12/04 05:12:16;;;;;;;;;;;;;;;;;;5095209;28;19912;-69
2023/12/04 05:14:42;;;;;;;;;;;;;;;;;;5094691;28;19923;-69
2023/12/04 05:17:08;;;;;;;;;;;;;;;;;;5094670;28;19918;-69
2023/12/04 05:19:34;;;;;;;;;;;;;;;;;;5095210;28;20090;-69
2023/12/04 05:22:00;;;;;;;;;;;;;;;;;;5094594;28;20361;-69
2023/12/04 05:24:27;;;;;;;;;;;;;;;;;;5094008;28;20321;-69
2023/12/04 05:26:53;;;;;;;;;;;;;;;;;;5094889;28;19914;-69
2023/12/04 05:29:19;;;;;;;;;;;;;;;;;;5094396;28;19908;-69
2023/12/04 05:31:45;;;;;;;;;;;;;;;;;;5094437;28;19977;-69
2023/12/04 05:34:11;;;;;;;;;;;;;;;;;;5094240;28;20387;-69
2023/12/04 05:36:37;;;;;;;;;;;;;;;;;;5094691;28;19916;-68
2023/12/04 05:39:04;;;;;;;;;;;;;;;;;;5093097;28;19908;-69
2023/12/04 05:41:30;;;;;;;;;;;;;;;;;;5094356;28;20295;-69
2023/12/04 05:43:56;;;;;;;;;;;;;;;;;;5094267;28;19908;-69
2023/12/04 05:46:22;;;;;;;;;;;;;;;;;;5093141;28;19933;-69
2023/12/04 05:48:49;;;;;;;;;;;;;;;;;;5094468;28;19912;-69
2023/12/04 05:51:15;;;;;;;;;;;;;;;;;;5094107;28;20300;-69
2023/12/04 05:53:41;;;;;;;;;;;;;;;;;;5093663;28;19916;-69
2023/12/04 05:56:08;;;;;;;;;;;;;;;;;;5075874;28;19908;-69
2023/12/04 05:58:34;;;;;;;;;;;;;;;;;;5093965;28;20399;-69
2023/12/04 06:01:01;;;;;;;;;;;;;;;;;;5093863;28;19914;-69
2023/12/04 06:03:27;;;;;;;;;;;;;;;;;;5093959;28;19908;-68
2023/12/04 06:05:53;;;;;;;;;;;;;;;;;;5092438;28;19959;-69
2023/12/04 06:08:19;;;;;;;;;;;;;;;;;;5093506;28;20175;-69
2023/12/04 06:10:45;;;;;;;;;;;;;;;;;;5093718;28;19920;-69
2023/12/04 06:13:11;;;;;;;;;;;;;;;;;;5093503;28;19917;-69
2023/12/04 06:15:38;;;;;;;;;;;;;;;;;;5093601;28;19919;-69
2023/12/04 06:18:04;;;;;;;;;;;;;;;;;;5093657;28;20338;-69
2023/12/04 06:20:30;;;;;;;;;;;;;;;;;;5093874;28;19908;-69
2023/12/04 06:22:56;;;;;;;;;;;;;;;;;;5093191;28;19921;-69
2023/12/04 06:25:23;;;;;;;;;;;;;;;;;;5093386;28;19922;-69
2023/12/04 06:27:49;;;;;;;;;;;;;;;;;;5093933;28;19930;-69
2023/12/04 06:30:15;;;;;;;;;;;;;;;;;;5093428;28;20350;-69
2023/12/04 06:32:41;;;;;;;;;;;;;;;;;;5093205;28;19926;-69
2023/12/04 06:35:07;;;;;;;;;;;;;;;;;;5093712;28;19981;-69
2023/12/04 06:37:34;;;;;;;;;;;;;;;;;;5092894;28;19914;-69
2023/12/04 06:40:02;;;;;;;;;;;;;;;;;;5093499;28;19912;-69
2023/12/04 06:42:28;;;;;;;;;;;;;;;;;;5093476;28;19961;-68
2023/12/04 06:44:54;;;;;;;;;;;;;;;;;;5093205;28;19915;-69
2023/12/04 06:47:20;;;;;;;;;;;;;;;;;;5093197;28;19915;-69
2023/12/04 06:49:47;;;;;;;;;;;;;;;;;;5093192;28;20373;-69
2023/12/04 06:52:13;;;;;;;;;;;;;;;;;;5092951;28;19912;-68
2023/12/04 06:54:39;;;;;;;;;;;;;;;;;;5093538;28;19916;-68
2023/12/04 06:57:05;;;;;;;;;;;;;;;;;;5093416;28;19911;-69
2023/12/04 06:59:31;;;;;;;;;;;;;;;;;;5093485;28;19908;-69
2023/12/04 07:01:57;;;;;;;;;;;;;;;;;;5092006;28;19911;-68
2023/12/04 07:04:23;;;;;;;;;;;;;;;;;;5092660;28;19908;-69
2023/12/04 07:06:50;;;;;;;;;;;;;;;;;;5092868;28;20402;-68
2023/12/04 07:09:16;;;;;;;;;;;;;;;;;;5092998;28;20338;-69
2023/12/04 07:11:43;;;;;;;;;;;;;;;;;;5092977;28;19918;-69
2023/12/04 07:14:09;;;;;;;;;;;;;;;;;;5087216;28;20403;-69
2023/12/04 07:16:35;;;;;;;;;;;;;;;;;;5088821;28;20277;-69
2023/12/04 07:19:01;;;;;;;;;;;;;;;;;;5092055;28;19953;-68
2023/12/04 07:21:27;;;;;;;;;;;;;;;;;;5092077;28;19920;-68
2023/12/04 07:23:54;;;;;;;;;;;;;;;;;;5088712;28;19908;-69
2023/12/04 07:26:21;;;;;;;;;;;;;;;;;;5091187;28;19912;-68
2023/12/04 07:28:47;;;;;;;;;;;;;;;;;;5093260;27;19912;-69
2023/12/04 07:31:13;;;;;;;;;;;;;;;;;;5092394;28;19965;-69
2023/12/04 07:33:39;;;;;;;;;;;;;;;;;;5090553;28;20399;-71
2023/12/04 07:36:06;;;;;;;;;;;;;;;;;;5092537;28;19912;-72
2023/12/04 07:38:32;;;;;;;;;;;;;;;;;;5120479;27;19912;-70
2023/12/04 07:40:58;;;;;;;;;;;;;;;;;;5096120;28;19908;-69
2023/12/04 07:43:25;;;;;;;;;;;;;;;;;;5094549;28;19950;-70
2023/12/04 07:45:51;;;;;;;;;;;;;;;;;;5094552;28;19912;-70
2023/12/04 07:48:17;;;;;;;;;;;;;;;;;;5091451;28;19934;-70
2023/12/04 07:50:43;;;;;;;;;;;;;;;;;;5090939;28;20308;-71
2023/12/04 07:53:11;;;;;;;;;;;;;;;;;;5093149;28;19938;-70
2023/12/04 07:55:38;;;;;;;;;;;;;;;;;;5094780;28;19912;-71
2023/12/04 07:58:04;;;;;;;;;;;;;;;;;;5091401;28;19912;-70
2023/12/04 08:00:30;;;;;;;;;;;;;;;;;;5092677;28;19935;-71
2023/12/04 08:02:56;;;;;;;;;;;;;;;;;;5092474;28;19922;-70
2023/12/04 08:05:22;;;;;;;;;;;;;;;;;;5091736;28;19977;-70
2023/12/04 08:07:49;;;;;;;;;;;;;;;;;;5087038;28;19935;-71
2023/12/04 08:10:15;;;;;;;;;;;;;;;;;;5090742;28;20377;-72
2023/12/04 08:12:41;;;;;;;;;;;;;;;;;;5093594;28;19932;-71
2023/12/04 08:15:08;;;;;;;;;;;;;;;;;;5093081;28;19915;-71
2023/12/04 08:17:34;;;;;;;;;;;;;;;;;;5091284;28;19912;-70
2023/12/04 08:20:01;;;;;;;;;;;;;;;;;;5093885;28;19920;-70
2023/12/04 08:22:27;;;;;;;;;;;;;;;;;;5089074;28;19913;-71
2023/12/04 08:24:53;;;;;;;;;;;;;;;;;;5090642;28;19916;-70
2023/12/04 08:27:19;;;;;;;;;;;;;;;;;;5092565;28;19973;-70
2023/12/04 08:29:46;;;;;;;;;;;;;;;;;;5092899;28;20425;-70
2023/12/04 08:32:12;;;;;;;;;;;;;;;;;;5092195;28;19916;-70
2023/12/04 08:34:38;;;;;;;;;;;;;;;;;;5091602;28;20402;-70
2023/12/04 08:37:04;;;;;;;;;;;;;;;;;;5092452;28;19912;-70
2023/12/04 08:39:30;;;;;;;;;;;;;;;;;;5093506;28;19909;-70
2023/12/04 08:41:57;;;;;;;;;;;;;;;;;;5095555;28;20285;-70
2023/12/04 08:44:23;;;;;;;;;;;;;;;;;;5106352;28;20252;-73
2023/12/04 08:46:50;;;;;;;;;;;;;;;;;;5092715;28;19908;-75
2023/12/04 08:49:16;;;;;;;;;;;;;;;;;;5094474;28;19912;-68
2023/12/04 08:51:43;;;;;;;;;;;;;;;;;;5089836;28;20307;-70
2023/12/04 08:54:09;;;;;;;;;;;;;;;;;;5092061;28;19924;-72
2023/12/04 08:56:36;;;;;;;;;;;;;;;;;;5091538;28;19916;-71
2023/12/04 08:59:02;;;;;;;;;;;;;;;;;;5092915;28;19913;-72
2023/12/04 09:01:28;;;;;;;;;;;;;;;;;;5089835;28;19916;-72
2023/12/04 09:03:55;;;;;;;;;;;;;;;;;;5093404;28;19918;-74
2023/12/04 09:06:22;;;;;;;;;;;;;;;;;;5091078;28;19934;-72
2023/12/04 09:08:48;;;;;;;;;;;;;;;;;;5093065;28;19923;-74
2023/12/04 09:11:14;;;;;;;;;;;;;;;;;;5091313;28;19912;-74
2023/12/04 09:13:40;;;;;;;;;;;;;;;;;;5091770;28;20392;-75
2023/12/04 09:16:07;;;;;;;;;;;;;;;;;;5092960;28;19915;-74
2023/12/04 09:18:34;;;;;;;;;;;;;;;;;;5088892;28;19912;-73
2023/12/04 09:21:00;;;;;;;;;;;;;;;;;;5091907;28;19918;-70
2023/12/04 09:23:26;;;;;;;;;;;;;;;;;;5089908;28;19916;-68
2023/12/04 09:25:53;;;;;;;;;;;;;;;;;;5091162;28;19912;-71
2023/12/04 09:28:19;;;;;;;;;;;;;;;;;;5098849;28;19912;-70
2023/12/04 09:30:45;;;;;;;;;;;;;;;;;;5088097;28;19926;-74
2023/12/04 09:33:11;;;;;;;;;;;;;;;;;;5089821;28;19922;-70
2023/12/04 09:35:37;;;;;;;;;;;;;;;;;;5093478;28;19908;-72
2023/12/04 09:38:03;;;;;;;;;;;;;;;;;;5080664;28;19919;-70
2023/12/04 09:40:30;;;;;;;;;;;;;;;;;;5078180;28;19938;-73
2023/12/04 09:42:56;;;;;;;;;;;;;;;;;;5078954;28;20292;-74
2023/12/04 09:45:22;;;;;;;;;;;;;;;;;;5081650;28;19921;-73
2023/12/04 09:47:48;;;;;;;;;;;;;;;;;;5088897;28;19916;-76
2023/12/04 09:50:17;;;;;;;;;;;;;;;;;;5091875;28;19920;-70
2023/12/04 09:52:43;;;;;;;;;;;;;;;;;;5081730;28;19920;-70
2023/12/04 09:55:09;;;;;;;;;;;;;;;;;;5086139;28;19912;-72
2023/12/04 09:57:36;;;;;;;;;;;;;;;;;;5085591;28;20385;-70
2023/12/04 10:00:02;;;;;;;;;;;;;;;;;;5081580;28;19912;-71
2023/12/04 10:02:28;;;;;;;;;;;;;;;;;;5082472;28;19919;-71
2023/12/04 10:04:54;;;;;;;;;;;;;;;;;;5083015;28;19949;-71
2023/12/04 10:07:20;;;;;;;;;;;;;;;;;;5077513;28;19930;-69
2023/12/04 10:09:47;;;;;;;;;;;;;;;;;;5077020;28;19913;-70
2023/12/04 10:12:13;;;;;;;;;;;;;;;;;;5080938;28;20349;-69
2023/12/04 10:14:39;;;;;;;;;;;;;;;;;;5083817;28;19916;-72
2023/12/04 10:17:05;;;;;;;;;;;;;;;;;;5086747;28;20310;-73
2023/12/04 10:19:31;;;;;;;;;;;;;;;;;;5091284;28;19916;-69
2023/12/04 10:22:00;;;;;;;;;;;;;;;;;;5087020;28;19919;-70
2023/12/04 10:24:27;;;;;;;;;;;;;;;;;;5087305;28;20369;-70
2023/12/04 10:26:53;;;;;;;;;;;;;;;;;;5103840;28;19920;-69
2023/12/04 10:29:19;;;;;;;;;;;;;;;;;;5091568;28;19912;-70
2023/12/04 10:31:45;;;;;;;;;;;;;;;;;;5091626;28;19912;-72
2023/12/04 10:34:11;;;;;;;;;;;;;;;;;;5097407;28;19920;-69
2023/12/04 10:36:38;;;;;;;;;;;;;;;;;;5097697;28;19919;-70
2023/12/04 10:39:04;;;;;;;;;;;;;;;;;;5086783;28;19913;-73
2023/12/04 10:41:31;;;;;;;;;;;;;;;;;;5072304;28;19964;-74
2023/12/04 10:43:58;;;;;;;;;;;;;;;;;;5073148;28;19965;-70
2023/12/04 10:46:24;;;;;;;;;;;;;;;;;;5080112;28;19920;-71
2023/12/04 10:48:50;;;;;;;;;;;;;;;;;;5082221;28;19920;-71
2023/12/04 10:51:17;;;;;;;;;;;;;;;;;;5073339;28;19913;-72
2023/12/04 10:53:43;;;;;;;;;;;;;;;;;;5072028;28;19921;-71
2023/12/04 10:56:09;;;;;;;;;;;;;;;;;;5079985;28;19919;-71
2023/12/04 10:58:36;;;;;;;;;;;;;;;;;;5081779;28;19920;-72
2023/12/04 11:01:02;;;;;;;;;;;;;;;;;;5080554;28;19916;-72
2023/12/04 11:03:28;;;;;;;;;;;;;;;;;;5076854;28;19917;-74
2023/12/04 11:05:54;;;;;;;;;;;;;;;;;;5081067;28;19942;-67
2023/12/04 11:08:21;;;;;;;;;;;;;;;;;;5089228;28;19912;-69
2023/12/04 11:10:47;;;;;;;;;;;;;;;;;;5092687;28;19916;-69
2023/12/04 11:13:13;;;;;;;;;;;;;;;;;;5079399;28;20292;-72
2023/12/04 11:15:40;;;;;;;;;;;;;;;;;;5109528;27;19981;-70
2023/12/04 11:18:08;;;;;;;;;;;;;;;;;;5087728;28;19964;-75
2023/12/04 11:20:34;;;;;;;;;;;;;;;;;;5092256;28;19923;-76
2023/12/04 11:23:00;;;;;;;;;;;;;;;;;;5083312;28;20494;-76
2023/12/04 11:25:26;;;;;;;;;;;;;;;;;;5089460;28;19916;-74
2023/12/04 11:27:52;;;;;;;;;;;;;;;;;;5093452;28;19912;-77
2023/12/04 11:30:19;;;;;;;;;;;;;;;;;;5091687;28;20392;-77
2023/12/04 11:32:45;;;;;;;;;;;;;;;;;;5080512;28;19920;-79
2023/12/04 11:35:11;;;;;;;;;;;;;;;;;;5095111;28;20421;-82
2023/12/04 11:37:37;;;;;;;;;;;;;;;;;;5094512;28;20391;-74
2023/12/04 11:40:04;;;;;;;;;;;;;;;;;;5095874;28;19916;-80
2023/12/04 11:42:30;;;;;;;;;;;;;;;;;;5084819;28;20377;-81
2023/12/04 11:44:57;;;;;;;;;;;;;;;;;;5086378;28;19949;-80
2023/12/04 11:47:23;;;;;;;;;;;;;;;;;;5091956;28;19912;-81
2023/12/04 11:49:49;;;;;;;;;;;;;;;;;;5080305;28;19916;-75
2023/12/04 11:52:15;;;;;;;;;;;;;;;;;;5085894;28;20304;-80
2023/12/04 11:54:41;;;;;;;;;;;;;;;;;;5094948;28;20390;-76
2023/12/04 11:57:08;;;;;;;;;;;;;;;;;;5095625;28;19924;-70
2023/12/04 11:59:34;;;;;;;;;;;;;;;;;;5077207;28;19908;-76
2023/12/04 12:02:00;;;;;;;;;;;;;;;;;;5089620;28;19937;-82
2023/12/04 12:04:27;;;;;;;;;;;;;;;;;;5095035;28;19934;-77
2023/12/04 12:06:53;;;;;;;;;;;;;;;;;;5101454;28;19921;-79
2023/12/04 12:09:20;;;;;;;;;;;;;;;;;;5077313;28;20583;-77
2023/12/04 12:11:46;;;;;;;;;;;;;;;;;;5091152;28;19918;-78
2023/12/04 12:14:13;;;;;;;;;;;;;;;;;;5107464;27;19920;-82
2023/12/04 12:16:39;;;;;;;;;;;;;;;;;;5093804;28;19914;-80
2023/12/04 12:19:05;;;;;;;;;;;;;;;;;;5090969;28;19916;-77
2023/12/04 12:21:31;;;;;;;;;;;;;;;;;;5090640;28;20284;-82
2023/12/04 12:23:58;;;;;;;;;;;;;;;;;;5086122;28;19961;-83
2023/12/04 12:26:24;;;;;;;;;;;;;;;;;;5094823;28;19919;-80
2023/12/04 12:28:51;;;;;;;;;;;;;;;;;;5075404;28;19918;-76
2023/12/04 12:31:17;;;;;;;;;;;;;;;;;;5092653;28;19912;-78
2023/12/04 12:33:43;;;;;;;;;;;;;;;;;;5091819;28;19917;-71
2023/12/04 12:36:09;;;;;;;;;;;;;;;;;;5094494;28;20386;-75
2023/12/04 12:38:37;;;;;;;;;;;;;;;;;;5091059;28;19912;-77
2023/12/04 12:41:03;;;;;;;;;;;;;;;;;;5085732;28;19917;-75
2023/12/04 12:43:29;;;;;;;;;;;;;;;;;;5073998;28;19916;-73
2023/12/04 12:45:56;;;;;;;;;;;;;;;;;;5074220;28;19955;-74
2023/12/04 12:48:22;;;;;;;;;;;;;;;;;;5080918;28;19920;-70
2023/12/04 12:50:48;;;;;;;;;;;;;;;;;;5087654;28;20277;-69
2023/12/04 12:53:14;;;;;;;;;;;;;;;;;;5087844;28;19958;-73
2023/12/04 12:55:41;;;;;;;;;;;;;;;;;;5089157;28;19981;-69
2023/12/04 12:58:08;;;;;;;;;;;;;;;;;;5089223;28;20364;-69
2023/12/04 13:00:34;;;;;;;;;;;;;;;;;;5087207;28;19957;-71
2023/12/04 13:03:00;;;;;;;;;;;;;;;;;;5072947;28;19915;-69
2023/12/04 13:05:26;;;;;;;;;;;;;;;;;;5087005;28;20338;-69
2023/12/04 13:07:54;;;;;;;;;;;;;;;;;;5088812;28;19916;-69
2023/12/04 13:10:20;;;;;;;;;;;;;;;;;;5087860;28;19915;-69
2023/12/04 13:12:47;;;;;;;;;;;;;;;;;;5090821;28;19928;-67
2023/12/04 13:15:13;;;;;;;;;;;;;;;;;;5091226;28;20372;-69
2023/12/04 13:17:39;;;;;;;;;;;;;;;;;;5090815;28;19909;-70
2023/12/04 13:20:08;;;;;;;;;;;;;;;;;;5092565;28;20307;-71
2023/12/04 13:22:34;;;;;;;;;;;;;;;;;;5088620;28;20341;-71
2023/12/04 13:25:02;;;;;;;;;;;;;;;;;;5089774;28;19920;-75
2023/12/04 13:27:28;;;;;;;;;;;;;;;;;;5075003;28;19923;-71
2023/12/04 13:29:55;;;;;;;;;;;;;;;;;;5082573;28;19925;-71
2023/12/04 13:32:21;;;;;;;;;;;;;;;;;;5089452;28;19916;-70
2023/12/04 13:34:47;;;;;;;;;;;;;;;;;;5092163;28;19920;-70
2023/12/04 13:37:13;;;;;;;;;;;;;;;;;;5091866;28;20395;-70
2023/12/04 13:39:47;;;;;;;;;;;;;;;;;;5083855;28;19922;-71
2023/12/04 13:44:58;;;;;;;;;;;;;;;;;;5099168;28;19912;-71
2023/12/04 13:47:24;;;;;;;;;;;;;;;;;;5110715;28;19911;-73
2023/12/04 13:49:50;;;;;;;;;;;;;;;;;;5080139;28;19912;-72
2023/12/04 13:52:20;;;;;;;;;;;;;;;;;;5089686;28;19948;-71
2023/12/04 13:54:49;;;;;;;;;;;;;;;;;;5088078;28;20477;-70
2023/12/04 13:57:32;;;;;;;;;;;;;;;;;;5080460;28;20284;-70
2023/12/04 13:59:59;;;;;;;;;;;;;;;;;;5089953;28;19916;-70
2023/12/04 14:02:25;;;;;;;;;;;;;;;;;;5087040;28;19923;-71
2023/12/04 14:04:51;;;;;;;;;;;;;;;;;;5091160;28;19922;-70
2023/12/04 14:07:18;;;;;;;;;;;;;;;;;;5091780;28;19983;-73
2023/12/04 14:09:45;;;;;;;;;;;;;;;;;;5090255;28;20384;-71
2023/12/04 14:12:11;;;;;;;;;;;;;;;;;;5084484;28;19913;-72
2023/12/04 14:14:39;;;;;;;;;;;;;;;;;;5076475;28;21451;-72
2023/12/04 14:17:07;;;;;;;;;;;;;;;;;;5091535;28;20358;-70
2023/12/04 14:19:33;;;;;;;;;;;;;;;;;;5080853;28;19916;-72
2023/12/04 14:21:59;;;;;;;;;;;;;;;;;;5091279;28;19919;-72
2023/12/04 14:24:25;;;;;;;;;;;;;;;;;;5091381;28;20388;-72
2023/12/04 14:26:53;;;;;;;;;;;;;;;;;;5091453;28;19912;-71
2023/12/04 14:29:19;;;;;;;;;;;;;;;;;;5085344;28;19915;-73
2023/12/04 14:31:46;;;;;;;;;;;;;;;;;;5091485;28;20288;-72
2023/12/04 14:34:12;;;;;;;;;;;;;;;;;;5103282;28;19926;-70
2023/12/04 14:36:38;;;;;;;;;;;;;;;;;;5077893;28;19917;-70
2023/12/04 14:39:05;;;;;;;;;;;;;;;;;;5071451;28;19973;-70
2023/12/04 14:41:31;;;;;;;;;;;;;;;;;;5105692;28;19922;-70
2023/12/04 14:43:58;;;;;;;;;;;;;;;;;;5096700;28;20392;-71
2023/12/04 14:46:24;;;;;;;;;;;;;;;;;;5089029;28;19909;-71
2023/12/04 14:48:50;;;;;;;;;;;;;;;;;;5083238;28;19959;-71
2023/12/04 14:51:16;;;;;;;;;;;;;;;;;;5087937;28;19914;-71
2023/12/04 14:57:24;;;;;;;;;;;;;;;;;;5089748;28;19916;-72
2023/12/04 15:05:27;;;;;;;;;;;;;;;;;;5064771;28;19908;-70
2023/12/04 15:18:34;;;;;;;;;;;;;;;;;;5067860;28;19912;-70
2023/12/04 15:21:00;;;;;;;;;;;;;;;;;;5068283;28;20458;-72
2023/12/04 15:23:27;;;;;;;;;;;;;;;;;;5060056;28;19913;-73
2023/12/04 15:25:54;;;;;;;;;;;;;;;;;;5057039;28;19912;-72
2023/12/04 15:28:20;;;;;;;;;;;;;;;;;;5062694;28;19969;-70
2023/12/04 15:30:46;;;;;;;;;;;;;;;;;;5061834;28;19919;-71
2023/12/04 15:33:12;;;;;;;;;;;;;;;;;;5067482;28;20377;-70
2023/12/04 15:35:38;;;;;;;;;;;;;;;;;;5065667;28;19924;-70
2023/12/04 15:38:05;;;;;;;;;;;;;;;;;;5052839;28;19946;-72
2023/12/04 15:40:31;;;;;;;;;;;;;;;;;;5089383;28;20288;-73
2023/12/04 15:42:58;;;;;;;;;;;;;;;;;;5088915;28;19977;-71
2023/12/04 15:45:24;;;;;;;;;;;;;;;;;;5075226;28;19912;-72
2023/12/04 15:47:50;;;;;;;;;;;;;;;;;;5087100;28;19922;-70
2023/12/04 15:50:16;;;;;;;;;;;;;;;;;;5085080;28;19912;-71
2023/12/04 15:52:43;;;;;;;;;;;;;;;;;;5092069;28;20377;-70
2023/12/04 15:55:10;;;;;;;;;;;;;;;;;;5090508;28;19918;-71
2023/12/04 15:57:36;;;;;;;;;;;;;;;;;;5091093;28;20277;-71
2023/12/04 16:00:03;;;;;;;;;;;;;;;;;;5090340;28;19916;-72
2023/12/04 16:02:30;;;;;;;;;;;;;;;;;;5092822;28;19912;-70
2023/12/04 16:04:56;;;;;;;;;;;;;;;;;;5097362;27;19916;-70
2023/12/04 16:07:22;;;;;;;;;;;;;;;;;;5094429;28;19922;-70
2023/12/04 16:09:48;;;;;;;;;;;;;;;;;;5091598;28;19972;-72
2023/12/04 16:12:14;;;;;;;;;;;;;;;;;;5093109;28;19916;-70
2023/12/04 16:14:41;;;;;;;;;;;;;;;;;;5093614;28;19924;-71
2023/12/04 16:17:08;;;;;;;;;;;;;;;;;;5089605;28;19916;-70
2023/12/04 16:19:34;;;;;;;;;;;;;;;;;;5093877;28;19915;-71
2023/12/04 16:22:00;;;;;;;;;;;;;;;;;;5090705;28;19917;-71
2023/12/04 16:24:26;;;;;;;;;;;;;;;;;;5093094;28;20353;-71
2023/12/04 16:26:55;;;;;;;;;;;;;;;;;;5092839;28;19912;-71
2023/12/04 16:29:21;;;;;;;;;;;;;;;;;;5092695;28;19916;-72
2023/12/04 16:31:47;;;;;;;;;;;;;;;;;;5092191;28;19912;-71
2023/12/04 16:34:13;;;;;;;;;;;;;;;;;;5087257;28;19920;-72
2023/12/04 16:36:39;;;;;;;;;;;;;;;;;;5086255;28;19923;-71
2023/12/04 16:39:06;;;;;;;;;;;;;;;;;;5094208;28;20295;-72
2023/12/04 16:41:32;;;;;;;;;;;;;;;;;;5094600;28;19912;-71
2023/12/04 16:43:58;;;;;;;;;;;;;;;;;;5094890;28;19912;-72
2023/12/04 16:46:24;;;;;;;;;;;;;;;;;;5094032;28;20307;-71
2023/12/04 16:48:50;;;;;;;;;;;;;;;;;;5079953;28;19909;-71
2023/12/04 16:51:17;;;;;;;;;;;;;;;;;;5074350;28;19979;-72
2023/12/04 16:53:44;;;;;;;;;;;;;;;;;;5074062;28;19917;-71
2023/12/04 16:56:10;;;;;;;;;;;;;;;;;;5074285;28;19961;-71
2023/12/04 16:58:37;;;;;;;;;;;;;;;;;;5072605;28;19978;-71
2023/12/04 17:01:03;;;;;;;;;;;;;;;;;;5073708;28;19908;-71